地図

経路データ

SID SEASON NUMBER BASIN SUBBASIN NAME ISO_TIME NATURE LAT LON WMO_WIND WMO_PRES WMO_AGENCY TRACK_TYPE DIST2LAND LANDFALL IFLAG USA_AGENCY USA_ATCF_ID USA_LAT USA_LON USA_RECORD USA_STATUS USA_WIND USA_PRES USA_SSHS USA_R34_NE USA_R34_SE USA_R34_SW USA_R34_NW USA_R50_NE USA_R50_SE USA_R50_SW USA_R50_NW USA_R64_NE USA_R64_SE USA_R64_SW USA_R64_NW USA_POCI USA_ROCI USA_RMW USA_EYE TOKYO_LAT TOKYO_LON TOKYO_GRADE TOKYO_WIND TOKYO_PRES TOKYO_R50_DIR TOKYO_R50_LONG TOKYO_R50_SHORT TOKYO_R30_DIR TOKYO_R30_LONG TOKYO_R30_SHORT TOKYO_LAND CMA_LAT CMA_LON CMA_CAT CMA_WIND CMA_PRES HKO_LAT HKO_LON HKO_CAT HKO_WIND HKO_PRES NEWDELHI_LAT NEWDELHI_LON NEWDELHI_GRADE NEWDELHI_WIND NEWDELHI_PRES NEWDELHI_CI NEWDELHI_DP NEWDELHI_POCI REUNION_LAT REUNION_LON REUNION_TYPE REUNION_WIND REUNION_PRES REUNION_TNUM REUNION_CI REUNION_RMW REUNION_R34_NE REUNION_R34_SE REUNION_R34_SW REUNION_R34_NW REUNION_R50_NE REUNION_R50_SE REUNION_R50_SW REUNION_R50_NW REUNION_R64_NE REUNION_R64_SE REUNION_R64_SW REUNION_R64_NW BOM_LAT BOM_LON BOM_TYPE BOM_WIND BOM_PRES BOM_TNUM BOM_CI BOM_RMW BOM_R34_NE BOM_R34_SE BOM_R34_SW BOM_R34_NW BOM_R50_NE BOM_R50_SE BOM_R50_SW BOM_R50_NW BOM_R64_NE BOM_R64_SE BOM_R64_SW BOM_R64_NW BOM_ROCI BOM_POCI BOM_EYE BOM_POS_METHOD BOM_PRES_METHOD NADI_LAT NADI_LON NADI_CAT NADI_WIND NADI_PRES WELLINGTON_LAT WELLINGTON_LON WELLINGTON_WIND WELLINGTON_PRES DS824_LAT DS824_LON DS824_STAGE DS824_WIND DS824_PRES TD9636_LAT TD9636_LON TD9636_STAGE TD9636_WIND TD9636_PRES TD9635_LAT TD9635_LON TD9635_WIND TD9635_PRES TD9635_ROCI NEUMANN_LAT NEUMANN_LON NEUMANN_CLASS NEUMANN_WIND NEUMANN_PRES MLC_LAT MLC_LON MLC_CLASS MLC_WIND MLC_PRES USA_GUST BOM_GUST BOM_GUST_PER REUNION_GUST REUNION_GUST_PER USA_SEAHGT USA_SEARAD_NE USA_SEARAD_SE USA_SEARAD_SW USA_SEARAD_NW STORM_SPEED STORM_DIR
1940252N15313 1940 62 NA NA NOT_NAMED 1940-09-07 18:00:00 TS 15.2000 -47.3000 25 hurdat_atl main 1261 1246 O_____________ hurdat_atl AL051940 15.2000 -47.3000 TD 25 -1 11 280
1940252N15313 1940 62 NA NA NOT_NAMED 1940-09-07 21:00:00 TS 15.2952 -47.8474 main 1246 1229 P_____________ AL051940 15.2952 -47.8474 TD 25 -1 11 281
1940252N15313 1940 62 NA NA NOT_NAMED 1940-09-08 00:00:00 TS 15.4000 -48.4000 25 hurdat_atl main 1229 1219 O_____________ hurdat_atl AL051940 15.4000 -48.4000 TD 25 -1 11 282
1940252N15313 1940 62 NA NA NOT_NAMED 1940-09-08 03:00:00 TS 15.5274 -48.9576 main 1215 1206 P_____________ AL051940 15.5274 -48.9576 TD 25 -1 11 286
1940252N15313 1940 62 NA NA NOT_NAMED 1940-09-08 06:00:00 TS 15.7000 -49.5000 25 hurdat_atl main 1211 1206 O_____________ hurdat_atl AL051940 15.7000 -49.5000 TD 25 -1 11 292
1940252N15313 1940 62 NA NA NOT_NAMED 1940-09-08 09:00:00 TS 15.9349 -50.0150 main 1210 1210 P_____________ AL051940 15.9349 -50.0150 TD 25 -1 11 297
1940252N15313 1940 62 NA NA NOT_NAMED 1940-09-08 12:00:00 TS 16.2000 -50.5000 25 hurdat_atl main 1222 1218 O_____________ hurdat_atl AL051940 16.2000 -50.5000 TD 25 -1 10 300
1940252N15313 1940 62 NA NA NOT_NAMED 1940-09-08 15:00:00 TS 16.4499 -50.9576 main 1226 1226 P_____________ AL051940 16.4499 -50.9576 TD 25 -1 10 300
1940252N15313 1940 62 NA NA NOT_NAMED 1940-09-08 18:00:00 TS 16.7000 -51.4000 25 hurdat_atl main 1235 1211 O_____________ hurdat_atl AL051940 16.7000 -51.4000 TD 25 -1 10 300
1940252N15313 1940 62 NA NA NOT_NAMED 1940-09-08 21:00:00 TS 16.9499 -51.8501 main 1203 1187 P_____________ AL051940 16.9499 -51.8501 TD 27 -1 10 300
1940252N15313 1940 62 NA NA NOT_NAMED 1940-09-09 00:00:00 TS 17.2000 -52.3000 30 hurdat_atl main 1187 1167 O_____________ hurdat_atl AL051940 17.2000 -52.3000 TD 30 -1 10 300
1940252N15313 1940 62 NA NA NOT_NAMED 1940-09-09 03:00:00 TS 17.4499 -52.7501 main 1159 1149 P_____________ AL051940 17.4499 -52.7501 TD 30 -1 10 300
1940252N15313 1940 62 NA NA NOT_NAMED 1940-09-09 06:00:00 TS 17.7000 -53.2000 30 hurdat_atl main 1149 1133 O_____________ hurdat_atl AL051940 17.7000 -53.2000 TD 30 -1 10 300
1940252N15313 1940 62 NA NA NOT_NAMED 1940-09-09 09:00:00 TS 17.9499 -53.6501 main 1126 1119 P_____________ AL051940 17.9499 -53.6501 TD 30 -1 10 300
1940252N15313 1940 62 NA NA NOT_NAMED 1940-09-09 12:00:00 TS 18.2000 -54.1000 30 hurdat_atl main 1120 1108 O_____________ hurdat_atl AL051940 18.2000 -54.1000 TD 30 -1 10 301
1940252N15313 1940 62 NA NA NOT_NAMED 1940-09-09 15:00:00 TS 18.4574 -54.5501 main 1111 1101 P_____________ AL051940 18.4574 -54.5501 TD 30 -1 10 300
1940252N15313 1940 62 NA NA NOT_NAMED 1940-09-09 18:00:00 TS 18.7000 -55.0000 30 hurdat_atl main 1103 1076 O_____________ hurdat_atl AL051940 18.7000 -55.0000 TD 30 -1 10 298
1940252N15313 1940 62 NA NA NOT_NAMED 1940-09-09 21:00:00 TS 18.9149 -55.4501 main 1065 1024 P_____________ AL051940 18.9149 -55.4501 TD 30 -1 9 295
1940252N15313 1940 62 NA NA NOT_NAMED 1940-09-10 00:00:00 TS 19.1000 -55.9000 30 hurdat_atl main 1024 982 O_____________ hurdat_atl AL051940 19.1000 -55.9000 TD 30 -1 9 292
1940252N15313 1940 62 NA NA NOT_NAMED 1940-09-10 03:00:00 TS 19.2649 -56.3501 main 973 932 P_____________ AL051940 19.2649 -56.3501 TD 32 -1 9 289
1940252N15313 1940 62 NA NA NOT_NAMED 1940-09-10 06:00:00 TS 19.4000 -56.8000 35 hurdat_atl main 932 891 O_____________ hurdat_atl AL051940 19.4000 -56.8000 TS 35 0 9 286
1940252N15313 1940 62 NA NA NOT_NAMED 1940-09-10 09:00:00 TS 19.5149 -57.2575 main 881 841 P_____________ AL051940 19.5149 -57.2575 TS 35 0 9 283
1940252N15313 1940 62 NA NA NOT_NAMED 1940-09-10 12:00:00 TS 19.6000 -57.7000 35 hurdat_atl main 841 801 O_____________ hurdat_atl AL051940 19.6000 -57.7000 TS 35 0 8 280
1940252N15313 1940 62 NA NA NOT_NAMED 1940-09-10 15:00:00 TS 19.6574 -58.1076 main 801 760 P_____________ AL051940 19.6574 -58.1076 TS 35 0 8 278
1940252N15313 1940 62 NA NA NOT_NAMED 1940-09-10 18:00:00 TS 19.7000 -58.5000 35 hurdat_atl main 760 719 O_____________ hurdat_atl AL051940 19.7000 -58.5000 TS 35 0 8 277
1940252N15313 1940 62 NA NA NOT_NAMED 1940-09-10 21:00:00 TS 19.7499 -58.9000 main 719 680 P_____________ AL051940 19.7499 -58.9000 TS 37 0 8 278
1940252N15313 1940 62 NA NA NOT_NAMED 1940-09-11 00:00:00 TS 19.8000 -59.3000 40 hurdat_atl main 680 639 O_____________ hurdat_atl AL051940 19.8000 -59.3000 TS 40 0 8 277
1940252N15313 1940 62 NA NA NOT_NAMED 1940-09-11 03:00:00 TS 19.8424 -59.6926 main 639 601 P_____________ AL051940 19.8424 -59.6926 TS 40 0 8 278
1940252N15313 1940 62 NA NA NOT_NAMED 1940-09-11 06:00:00 TS 19.9000 -60.1000 40 hurdat_atl main 601 564 O_____________ hurdat_atl AL051940 19.9000 -60.1000 TS 40 0 8 280
1940252N15313 1940 62 NA NA NOT_NAMED 1940-09-11 09:00:00 TS 19.9848 -60.5201 main 564 518 P_____________ AL051940 19.9848 -60.5201 TS 42 0 9 283
1940252N15313 1940 62 NA NA NOT_NAMED 1940-09-11 12:00:00 TS 20.1000 -61.0000 45 hurdat_atl main 518 465 O_____________ hurdat_atl AL051940 20.1000 -61.0000 TS 45 0 10 284
1940252N15313 1940 62 NA NA NOT_NAMED 1940-09-11 15:00:00 TS 20.2426 -61.5850 main 465 420 P_____________ AL051940 20.2426 -61.5850 TS 45 0 12 285
1940252N15313 1940 62 NA NA NOT_NAMED 1940-09-11 18:00:00 TS 20.4000 -62.2000 45 hurdat_atl main 420 384 O_____________ hurdat_atl AL051940 20.4000 -62.2000 TS 45 0 11 285
1940252N15313 1940 62 NA NA NOT_NAMED 1940-09-11 21:00:00 TS 20.5423 -62.7577 main 375 352 P_____________ AL051940 20.5423 -62.7577 TS 47 0 11 286
1940252N15313 1940 62 NA NA NOT_NAMED 1940-09-12 00:00:00 TS 20.7000 -63.3000 50 hurdat_atl main 352 334 O_____________ hurdat_atl AL051940 20.7000 -63.3000 TS 50 0 11 289
1940252N15313 1940 62 NA NA NOT_NAMED 1940-09-12 03:00:00 TS 20.8923 -63.8426 main 337 325 P_____________ AL051940 20.8923 -63.8426 TS 50 0 11 291
1940252N15313 1940 62 NA NA NOT_NAMED 1940-09-12 06:00:00 TS 21.1000 -64.4000 50 hurdat_atl main 327 323 O_____________ hurdat_atl AL051940 21.1000 -64.4000 TS 50 0 11 291
1940252N15313 1940 62 NA NA NOT_NAMED 1940-09-12 09:00:00 TS 21.3073 -64.9851 main 330 328 P_____________ AL051940 21.3073 -64.9851 TS 52 0 12 290
1940252N15313 1940 62 NA NA NOT_NAMED 1940-09-12 12:00:00 TS 21.5000 -65.6000 55 hurdat_atl main 346 346 O_____________ hurdat_atl AL051940 21.5000 -65.6000 TS 55 0 12 286
1940252N15313 1940 62 NA NA NOT_NAMED 1940-09-12 15:00:00 TS 21.6498 -66.2428 main 357 357 P_____________ AL051940 21.6498 -66.2428 TS 60 0 12 284
1940252N15313 1940 62 NA NA NOT_NAMED 1940-09-12 18:00:00 TS 21.8000 -66.9000 65 hurdat_atl main 374 351 O_____________ hurdat_atl AL051940 21.8000 -66.9000 HU 65 1 13 286
1940252N15313 1940 62 NA NA NOT_NAMED 1940-09-12 21:00:00 TS 21.9922 -67.5501 main 349 341 P_____________ AL051940 21.9922 -67.5501 HU 67 1 13 288
1940252N15313 1940 62 NA NA NOT_NAMED 1940-09-13 00:00:00 TS 22.2000 -68.2000 70 hurdat_atl main 343 330 O_____________ hurdat_atl AL051940 22.2000 -68.2000 HU 70 1 13 288
1940252N15313 1940 62 NA NA NOT_NAMED 1940-09-13 03:00:00 TS 22.3849 -68.8653 main 333 326 P_____________ AL051940 22.3849 -68.8653 HU 75 1 13 288
1940252N15313 1940 62 NA NA NOT_NAMED 1940-09-13 06:00:00 TS 22.6000 -69.5000 80 hurdat_atl main 333 329 O_____________ hurdat_atl AL051940 22.6000 -69.5000 HU 80 1 12 293
1940252N15313 1940 62 NA NA NOT_NAMED 1940-09-13 09:00:00 TS 22.8700 -70.1025 main 350 333 P_____________ AL051940 22.8700 -70.1025 HU 82 1 12 301
1940252N15313 1940 62 NA NA NOT_NAMED 1940-09-13 12:00:00 TS 23.2000 -70.6000 85 hurdat_atl main 333 326 O_____________ hurdat_atl AL051940 23.2000 -70.6000 HU 85 2 10 311
1940252N15313 1940 62 NA NA NOT_NAMED 1940-09-13 15:00:00 TS 23.5473 -70.9603 main 329 329 P_____________ AL051940 23.5473 -70.9603 HU 85 2 10 325
1940252N15313 1940 62 NA NA NOT_NAMED 1940-09-13 18:00:00 TS 24.0000 -71.2000 85 hurdat_atl main 363 363 O_____________ hurdat_atl AL051940 24.0000 -71.2000 HU 85 2 11 339
1940252N15313 1940 62 NA NA NOT_NAMED 1940-09-13 21:00:00 TS 24.6124 -71.4170 main 413 413 P_____________ AL051940 24.6124 -71.4170 HU 85 2 13 348
1940252N15313 1940 62 NA NA NOT_NAMED 1940-09-14 00:00:00 TS 25.3000 -71.5000 85 hurdat_atl main 483 483 O_____________ hurdat_atl AL051940 25.3000 -71.5000 HU 85 2 14 359
1940252N15313 1940 62 NA NA NOT_NAMED 1940-09-14 03:00:00 TS 25.9574 -71.4177 main 560 560 P_____________ AL051940 25.9574 -71.4177 HU 85 2 13 12
1940252N15313 1940 62 NA NA NOT_NAMED 1940-09-14 06:00:00 TS 26.6000 -71.2000 85 hurdat_atl main 630 630 O_____________ hurdat_atl AL051940 26.6000 -71.2000 HU 85 2 13 20
1940252N15313 1940 62 NA NA NOT_NAMED 1940-09-14 09:00:00 TS 27.2076 -70.9151 main 703 703 P_____________ AL051940 27.2076 -70.9151 HU 85 2 13 24
1940252N15313 1940 62 NA NA NOT_NAMED 1940-09-14 12:00:00 TS 27.8000 -70.6000 85 hurdat_atl main 776 776 O_____________ hurdat_atl AL051940 27.8000 -70.6000 HU 85 2 13 24
1940252N15313 1940 62 NA NA NOT_NAMED 1940-09-14 15:00:00 TS 28.4075 -70.3053 main 847 847 P_____________ AL051940 28.4075 -70.3053 HU 85 2 13 20
1940252N15313 1940 62 NA NA NOT_NAMED 1940-09-14 18:00:00 TS 29.0000 -70.1000 85 hurdat_atl main 876 835 O_____________ hurdat_atl AL051940 29.0000 -70.1000 HU 85 2 12 10
1940252N15313 1940 62 NA NA NOT_NAMED 1940-09-14 21:00:00 TS 29.5424 -70.0692 main 835 788 P_____________ AL051940 29.5424 -70.0692 HU 85 2 11 0
1940252N15313 1940 62 NA NA NOT_NAMED 1940-09-15 00:00:00 TS 30.1000 -70.1000 85 hurdat_atl main 788 743 O_____________ hurdat_atl AL051940 30.1000 -70.1000 HU 85 2 12 0
1940252N15313 1940 62 NA NA NOT_NAMED 1940-09-15 03:00:00 TS 30.7275 -70.0649 main 743 703 P_____________ AL051940 30.7275 -70.0649 HU 85 2 13 4
1940252N15313 1940 62 NA NA NOT_NAMED 1940-09-15 06:00:00 TS 31.4000 -70.0000 85 hurdat_atl main 703 659 O_____________ hurdat_atl AL051940 31.4000 -70.0000 HU 85 2 14 6
1940252N15313 1940 62 NA NA NOT_NAMED 1940-09-15 09:00:00 TS 32.0925 -69.9075 main 659 620 P_____________ AL051940 32.0925 -69.9075 HU 85 2 14 7
1940252N15313 1940 62 NA NA NOT_NAMED 1940-09-15 12:00:00 TS 32.8000 -69.8000 85 hurdat_atl main 620 588 O_____________ hurdat_atl AL051940 32.8000 -69.8000 HU 85 2 14 7
1940252N15313 1940 62 NA NA NOT_NAMED 1940-09-15 15:00:00 TS 33.4924 -69.7144 main 588 564 P_____________ AL051940 33.4924 -69.7144 HU 82 1 14 7
1940252N15313 1940 62 NA NA NOT_NAMED 1940-09-15 18:00:00 TS 34.2000 -69.6000 80 hurdat_atl main 564 552 O_____________ hurdat_atl AL051940 34.2000 -69.6000 HU 80 1 15 9
1940252N15313 1940 62 NA NA NOT_NAMED 1940-09-15 21:00:00 TS 34.9349 -69.4368 main 560 554 P_____________ AL051940 34.9349 -69.4368 HU 80 1 15 12
1940252N15313 1940 62 NA NA NOT_NAMED 1940-09-16 00:00:00 TS 35.7000 -69.2000 80 hurdat_atl main 567 566 O_____________ hurdat_atl AL051940 35.7000 -69.2000 HU 80 1 16 16
1940252N15313 1940 62 NA NA NOT_NAMED 1940-09-16 03:00:00 TS 36.4849 -68.8869 main 575 504 P_____________ AL051940 36.4849 -68.8869 HU 77 1 17 19
1940252N15313 1940 62 NA NA NOT_NAMED 1940-09-16 06:00:00 TS 37.3000 -68.5000 75 hurdat_atl main 504 431 O_____________ hurdat_atl AL051940 37.3000 -68.5000 HU 75 1 18 21
1940252N15313 1940 62 NA NA NOT_NAMED 1940-09-16 09:00:00 TS 38.1349 -68.0716 main 431 362 P_____________ AL051940 38.1349 -68.0716 HU 75 1 18 23
1940252N15313 1940 62 NA NA NOT_NAMED 1940-09-16 12:00:00 TS 39.0000 -67.6000 75 hurdat_atl main 362 316 O_____________ hurdat_atl AL051940 39.0000 -67.6000 HU 75 1 19 24
1940252N15313 1940 62 NA NA NOT_NAMED 1940-09-16 15:00:00 TS 39.8625 -67.0988 main 315 296 P_____________ AL051940 39.8625 -67.0988 HU 75 1 20 23
1940252N15313 1940 62 NA NA NOT_NAMED 1940-09-16 18:00:00 TS 40.8000 -66.6000 75 hurdat_atl main 300 193 O_____________ hurdat_atl AL051940 40.8000 -66.6000 HU 75 1 21 20
1940252N15313 1940 62 NA NA NOT_NAMED 1940-09-16 21:00:00 TS 41.8697 -66.1483 main 180 66 P_____________ AL051940 41.8697 -66.1483 HU 75 1 23 17
1940252N15313 1940 62 NA NA NOT_NAMED 1940-09-17 00:00:00 TS 43.0000 -65.7000 75 hurdat_atl main 55 0 O_____________ hurdat_atl AL051940 43.0000 -65.7000 HU 75 1 24 16
1940252N15313 1940 62 NA NA NOT_NAMED 1940-09-17 03:00:00 TS 44.1671 -65.2222 main 0 0 P_____________ AL051940 44.1671 -65.2222 HU 70 1 23 18
1940252N15313 1940 62 NA NA NOT_NAMED 1940-09-17 06:00:00 TS 45.2000 -64.7000 65 hurdat_atl main 11 0 O_____________ hurdat_atl AL051940 45.2000 -64.7000 HU 65 1 19 23
1940252N15313 1940 62 NA NA NOT_NAMED 1940-09-17 09:00:00 TS 45.9469 -64.1352 main 0 0 P_____________ AL051940 45.9469 -64.1352 HU 62 0 15 33
1940252N15313 1940 62 NA NA NOT_NAMED 1940-09-17 12:00:00 ET 46.5000 -63.5000 60 hurdat_atl main 0 0 O_____________ hurdat_atl AL051940 46.5000 -63.5000 EX 60 -4 14 41
1940252N15313 1940 62 NA NA NOT_NAMED 1940-09-17 15:00:00 ET 47.0246 -62.7875 main 67 67 P_____________ AL051940 47.0246 -62.7875 EX 60 -4 14 49
1940252N15313 1940 62 NA NA NOT_NAMED 1940-09-17 18:00:00 ET 47.4000 -62.0000 60 hurdat_atl main 111 86 O_____________ hurdat_atl AL051940 47.4000 -62.0000 EX 60 -4 12 62
1940252N15313 1940 62 NA NA NOT_NAMED 1940-09-17 21:00:00 ET 47.6016 -61.1854 main 86 77 P_____________ AL051940 47.6016 -61.1854 EX 60 -4 12 75
1940252N15313 1940 62 NA NA NOT_NAMED 1940-09-18 00:00:00 ET 47.7000 -60.3000 60 hurdat_atl main 70 7 O_____________ hurdat_atl AL051940 47.7000 -60.3000 EX 60 -4 13 80
1940252N15313 1940 62 NA NA NOT_NAMED 1940-09-18 03:00:00 ET 47.8141 -59.3447 main 0 0 P_____________ AL051940 47.8141 -59.3447 EX 57 -4 14 82
1940252N15313 1940 62 NA NA NOT_NAMED 1940-09-18 06:00:00 ET 47.9000 -58.3000 55 hurdat_atl main 0 0 O_____________ hurdat_atl AL051940 47.9000 -58.3000 EX 55 -4 14 84
1940252N15313 1940 62 NA NA NOT_NAMED 1940-09-18 09:00:00 ET 47.9563 -57.1942 main 0 0 P_____________ AL051940 47.9563 -57.1942 EX 52 -4 15 86
1940252N15313 1940 62 NA NA NOT_NAMED 1940-09-18 12:00:00 ET 48.0000 -56.0000 50 hurdat_atl main 0 0 O_____________ hurdat_atl AL051940 48.0000 -56.0000 EX 50 -4 16 87
1940252N15313 1940 62 NA NA NOT_NAMED 1940-09-18 15:00:00 ET 48.0485 -54.7446 main 0 0 P_____________ AL051940 48.0485 -54.7446 EX 45 -4 17 87
1940252N15313 1940 62 NA NA NOT_NAMED 1940-09-18 18:00:00 ET 48.1000 -53.4000 40 hurdat_atl main 13 0 O_____________ hurdat_atl AL051940 48.1000 -53.4000 EX 40 -4 18 87
1940252N15313 1940 62 NA NA NOT_NAMED 1940-09-18 21:00:00 ET 48.1387 -52.0385 main 59 59 P_____________ AL051940 48.1387 -52.0385 EX 37 -4 19 87
1940252N15313 1940 62 NA NA NOT_NAMED 1940-09-19 00:00:00 ET 48.2000 -50.5000 35 hurdat_atl main 170 170 O_____________ hurdat_atl AL051940 48.2000 -50.5000 EX 35 -4 22 86
1940252N15313 1940 62 NA NA NOT_NAMED 1940-09-19 03:00:00 ET 48.2739 -48.7323 main 302 302 P_____________ AL051940 48.2739 -48.7323 EX 32 -4 25 85
1940252N15313 1940 62 NA NA NOT_NAMED 1940-09-19 06:00:00 ET 48.4000 -46.7000 30 hurdat_atl main 448 448 O_____________ hurdat_atl AL051940 48.4000 -46.7000 EX 30 -4 29 84
1940252N15313 1940 62 NA NA NOT_NAMED 1940-09-19 09:00:00 ET 48.5604 -44.4365 main 618 618 P_____________ AL051940 48.5604 -44.4365 EX 30 -4 31 83
1940252N15313 1940 62 NA NA NOT_NAMED 1940-09-19 12:00:00 ET 48.8000 -42.0000 30 hurdat_atl main 795 795 O_____________ hurdat_atl AL051940 48.8000 -42.0000 EX 30 -4 33 80
1940252N15313 1940 62 NA NA NOT_NAMED 1940-09-19 15:00:00 ET 49.1346 -39.5172 main 978 978 P_____________ AL051940 49.1346 -39.5172 EX 30 -4 33 78
1940252N15313 1940 62 NA NA NOT_NAMED 1940-09-19 18:00:00 ET 49.5000 -37.0000 30 hurdat_atl main 1160 O_____________ hurdat_atl AL051940 49.5000 -37.0000 EX 30 -4 33 77

IBTrACS Databaseについて

本データベースは、米国NOAAが公開する1842年以降の世界の熱帯低気圧のベストトラックデータアーカイブInternational Best Track Archive for Climate Stewardship (IBTrACS)を、ウェブで閲覧しやすい形式に変換したものです。

最終更新日:2021-10-21